createdAt,value
2016-03-24T00:00:43.438Z,84.06
2016-03-24T00:01:43.206Z,83.92
2016-03-24T00:02:43.365Z,84.06
2016-03-24T00:03:43.368Z,83.68
2016-03-24T00:04:43.355Z,83.59
2016-03-24T00:05:43.374Z,83.68
2016-03-24T00:06:43.672Z,83.78
2016-03-24T00:07:43.347Z,83.68
2016-03-24T00:08:44.427Z,83.78
2016-03-24T00:09:43.322Z,83.68
2016-03-24T00:10:43.324Z,83.68
2016-03-24T00:11:43.311Z,83.59
2016-03-24T00:12:43.298Z,83.68
2016-03-24T00:13:43.520Z,84.16
2016-03-24T00:14:43.304Z,83.78
2016-03-24T00:15:43.729Z,84.25
2016-03-24T00:16:43.262Z,84.25
2016-03-24T00:17:43.468Z,84.25
2016-03-24T00:18:43.346Z,83.87
2016-03-24T00:19:43.254Z,83.78
2016-03-24T00:20:43.445Z,84.16
2016-03-24T00:21:43.244Z,84.25
2016-03-24T00:22:43.232Z,83.78
2016-03-24T00:23:43.218Z,84.16
2016-03-24T00:25:43.208Z,83.97
2016-03-24T00:26:43.211Z,84.01
2016-03-24T00:27:44.042Z,84.11
2016-03-24T00:28:43.186Z,84.4
2016-03-24T00:29:43.188Z,84.21
2016-03-24T00:30:43.175Z,84.3
2016-03-24T00:31:43.303Z,84.49
2016-03-24T00:32:42.431Z,84.49
2016-03-24T00:33:43.136Z,84.16
2016-03-24T00:34:43.138Z,84.21
2016-03-24T00:35:43.141Z,84.25
2016-03-24T00:36:43.128Z,84.01
2016-03-24T00:37:43.116Z,84.06
2016-03-24T00:38:43.118Z,84.25
2016-03-24T00:39:43.121Z,84.25
2016-03-24T00:40:43.123Z,84.16
2016-03-24T00:41:43.111Z,84.06
2016-03-24T00:42:43.113Z,84.11
2016-03-24T00:43:43.085Z,83.97
2016-03-24T00:44:43.071Z,84.34
2016-03-24T00:45:43.075Z,84.44
2016-03-24T00:46:43.062Z,84.11
2016-03-24T00:47:43.049Z,84.21
2016-03-24T00:48:43.051Z,84.3
2016-03-24T00:49:43.038Z,84.01
2016-03-24T00:50:43.057Z,84.01
2016-03-24T00:51:43.028Z,84.01
2016-03-24T00:52:43.031Z,84.11
2016-03-24T00:53:43.002Z,84.11
2016-03-24T00:54:43.020Z,84.01
2016-03-24T00:55:43.023Z,84.11
2016-03-24T00:56:42.995Z,84.4
2016-03-24T00:57:42.981Z,84.3
2016-03-24T00:58:42.984Z,84.68
2016-03-24T00:59:42.972Z,84.59
2016-03-24T01:00:42.958Z,84.87
2016-03-24T01:01:42.961Z,84.97
2016-03-24T01:02:42.947Z,84.59
2016-03-24T01:03:42.936Z,84.3
2016-03-24T01:04:42.938Z,84.49
2016-03-24T01:05:42.941Z,84.68
2016-03-24T01:06:42.927Z,84.68
2016-03-24T01:07:42.915Z,84.3
2016-03-24T01:08:42.901Z,84.59
2016-03-24T01:09:42.889Z,84.49
2016-03-24T01:10:42.891Z,84.68
2016-03-24T01:11:42.894Z,84.49
2016-03-24T01:12:42.882Z,84.87
2016-03-24T01:13:42.853Z,84.64
2016-03-24T01:14:42.855Z,84.92
2016-03-24T01:15:42.843Z,84.74
2016-03-24T01:16:43.923Z,84.74
2016-03-24T01:17:44.254Z,84.55
2016-03-24T01:18:43.787Z,85.02
2016-03-24T01:19:43.009Z,85.11
2016-03-24T01:20:43.371Z,84.83
2016-03-24T01:21:42.827Z,84.64
2016-03-24T01:22:42.814Z,85.3
2016-03-24T01:23:42.864Z,85.02
2016-03-24T01:24:43.398Z,84.55
2016-03-24T01:25:43.134Z,84.92
2016-03-24T01:26:42.795Z,85.21
2016-03-24T01:27:44.094Z,85.59
2016-03-24T01:28:42.768Z,85.36
2016-03-24T01:29:42.739Z,85.26
2016-03-24T01:30:42.742Z,85.26
2016-03-24T01:31:42.775Z,85.36
2016-03-24T01:32:42.733Z,85.36
2016-03-24T01:33:42.719Z,85.45
2016-03-24T01:34:42.722Z,85.36
2016-03-24T01:35:42.958Z,85.26
2016-03-24T01:36:42.711Z,85.74
2016-03-24T01:37:42.714Z,85.83
2016-03-24T01:39:42.688Z,85.88
2016-03-24T01:40:42.691Z,85.78
2016-03-24T01:41:42.678Z,85.6
2016-03-24T01:42:42.665Z,85.41
2016-03-24T01:43:44.012Z,85.88
2016-03-24T01:44:43.592Z,85.5
2016-03-24T01:45:43.235Z,86.07
2016-03-24T01:46:42.879Z,86.26
2016-03-24T01:47:42.616Z,86.16
2016-03-24T01:48:42.587Z,85.88
2016-03-24T01:49:42.996Z,85.69
2016-03-24T01:50:42.576Z,85.88
2016-03-24T01:51:42.580Z,86.12
2016-03-24T01:52:42.567Z,86.22
2016-03-24T01:53:42.570Z,86.5
2016-03-24T01:54:42.542Z,86.6
2016-03-24T01:55:42.560Z,87.07
2016-03-24T01:56:42.547Z,86.88
2016-03-24T01:57:42.534Z,86.69
2016-03-24T01:58:42.520Z,87.07
2016-03-24T01:59:42.523Z,87.16
2016-03-24T02:00:42.511Z,87.16
2016-03-24T02:01:42.497Z,86.98
2016-03-24T02:02:42.484Z,87.4
2016-03-24T02:03:42.565Z,87.35
2016-03-24T02:04:42.474Z,87.59
2016-03-24T02:05:42.461Z,87.21
2016-03-24T02:06:42.449Z,87.3
2016-03-24T02:07:42.435Z,87.3
2016-03-24T02:08:42.438Z,87.12
2016-03-24T02:09:42.425Z,87.3
2016-03-24T02:10:42.428Z,87.12
2016-03-24T02:11:42.399Z,87.59
2016-03-24T02:12:42.386Z,86.74
2016-03-24T02:13:42.388Z,87.3
2016-03-24T02:14:42.377Z,87.68
2016-03-24T02:15:42.363Z,87.12
2016-03-24T02:16:42.350Z,87.4
2016-03-24T02:17:42.353Z,87.21
2016-03-24T02:18:42.340Z,87.12
2016-03-24T02:19:42.343Z,87.3
2016-03-24T02:20:42.330Z,87.02
2016-03-24T02:21:42.332Z,87.02
2016-03-24T02:22:42.304Z,87.02
2016-03-24T02:23:42.307Z,87.02
2016-03-24T02:24:42.294Z,87.21
2016-03-24T02:25:42.281Z,87.02
2016-03-24T02:26:42.284Z,86.74
2016-03-24T02:27:42.270Z,86.88
2016-03-24T02:28:42.242Z,87.07
2016-03-24T02:29:42.245Z,86.69
2016-03-24T02:30:42.247Z,86.98
2016-03-24T02:31:42.234Z,86.6
2016-03-24T02:32:42.221Z,86.79
2016-03-24T02:33:42.239Z,87.16
2016-03-24T02:34:43.445Z,87.07
2016-03-24T02:35:42.198Z,87.64
2016-03-24T02:36:42.560Z,87.16
2016-03-24T02:37:42.375Z,87.45
2016-03-24T02:38:42.175Z,87.07
2016-03-24T02:39:42.616Z,87.35
2016-03-24T02:40:42.150Z,87.26
2016-03-24T02:41:42.136Z,87.07
2016-03-24T02:42:42.124Z,87.45
2016-03-24T02:44:42.910Z,87.12
2016-03-24T02:45:43.569Z,87.4
2016-03-24T02:46:42.212Z,87.3
2016-03-24T02:47:43.059Z,87.21
2016-03-24T02:48:42.093Z,87.3
2016-03-24T02:49:42.065Z,87.21
2016-03-24T02:50:42.051Z,87.4
2016-03-24T02:51:42.054Z,87.49
2016-03-24T02:52:42.041Z,87.3
2016-03-24T02:53:56.216Z,87.4
2016-03-24T02:54:42.578Z,87.4
2016-03-24T02:55:42.752Z,87.4
2016-03-24T02:56:42.958Z,87.3
2016-03-24T02:57:42.007Z,87.49
2016-03-24T02:58:41.979Z,87.4
2016-03-24T02:59:41.981Z,87.77
2016-03-24T03:00:41.969Z,87.97
2016-03-24T03:01:41.955Z,87.4
2016-03-24T03:02:42.411Z,87.77
2016-03-24T03:03:42.148Z,87.87
2016-03-24T03:04:42.526Z,87.49
2016-03-24T03:05:41.919Z,87.87
2016-03-24T03:06:42.361Z,87.77
2016-03-24T03:07:42.503Z,87.87
2016-03-24T03:08:41.897Z,87.82
2016-03-24T03:09:41.899Z,87.77
2016-03-24T03:10:41.871Z,88.01
2016-03-24T03:11:41.873Z,87.45
2016-03-24T03:12:41.861Z,87.45
2016-03-24T03:13:41.863Z,87.45
2016-03-24T03:14:41.850Z,87.54
2016-03-24T03:15:41.837Z,87.45
2016-03-24T03:16:41.824Z,87.25
2016-03-24T03:17:41.826Z,87.25
2016-03-24T03:18:41.830Z,87.35
2016-03-24T03:19:41.801Z,87.16
2016-03-24T03:20:41.788Z,87.16
2016-03-24T03:21:41.776Z,87.16
2016-03-24T03:22:41.794Z,87.16
2016-03-24T03:23:41.765Z,87.16
2016-03-24T03:24:41.768Z,87.06
2016-03-24T03:25:41.754Z,87.54
2016-03-24T03:26:41.742Z,87.25
2016-03-24T03:27:41.729Z,87.54
2016-03-24T03:28:41.732Z,87.54
2016-03-24T03:29:41.718Z,87.35
2016-03-24T03:30:41.706Z,87.16
2016-03-24T03:31:41.708Z,87.63
2016-03-24T03:32:41.695Z,87.35
2016-03-24T03:33:41.792Z,87.63
2016-03-24T03:34:41.686Z,87.16
2016-03-24T03:35:41.673Z,87.54
2016-03-24T03:36:41.659Z,87.45
2016-03-24T03:37:41.647Z,86.87
2016-03-24T03:38:41.649Z,87.06
2016-03-24T03:39:41.636Z,87.06
2016-03-24T03:40:41.638Z,86.78
2016-03-24T03:41:41.611Z,87.06
2016-03-24T03:42:41.628Z,86.87
2016-03-24T03:43:41.600Z,87.16
2016-03-24T03:44:41.587Z,87.02
2016-03-24T03:45:41.590Z,86.74
2016-03-24T03:46:41.576Z,86.97
2016-03-24T03:47:41.579Z,87.06
2016-03-24T03:48:41.566Z,87.06
2016-03-24T03:49:41.554Z,86.97
2016-03-24T03:50:41.540Z,87.02
2016-03-24T03:51:41.544Z,87.12
2016-03-24T03:52:41.530Z,87.12
2016-03-24T03:53:41.518Z,86.93
2016-03-24T03:54:42.895Z,87.12
2016-03-24T03:55:41.507Z,87.02
2016-03-24T03:56:41.478Z,87.12
2016-03-24T03:57:42.060Z,86.93
2016-03-24T03:58:41.468Z,86.93
2016-03-24T03:59:41.471Z,86.93
2016-03-24T04:00:41.473Z,86.64
2016-03-24T04:01:41.461Z,86.93
2016-03-24T04:02:41.448Z,87.02
2016-03-24T04:03:42.014Z,87.12
2016-03-24T04:04:41.531Z,87.21
2016-03-24T04:05:41.409Z,87.21
2016-03-24T04:06:41.417Z,87.49
2016-03-24T04:07:41.403Z,87.3
2016-03-24T04:08:41.391Z,87.49
2016-03-24T04:09:41.565Z,86.93
2016-03-24T04:10:41.365Z,87.87
2016-03-24T04:11:41.367Z,87.21
2016-03-24T04:12:41.933Z,87.02
2016-03-24T04:13:41.341Z,86.69
2016-03-24T04:14:41.532Z,87.21
2016-03-24T04:15:41.362Z,86.79
2016-03-24T04:16:41.335Z,87.83
2016-03-24T04:17:41.571Z,86.88
2016-03-24T04:18:41.308Z,87.73
2016-03-24T04:19:41.295Z,87.16
2016-03-24T04:20:41.298Z,87.35
2016-03-24T04:21:42.223Z,87.16
2016-03-24T04:22:41.273Z,87.54
2016-03-24T04:23:41.259Z,87.07
2016-03-24T04:24:41.262Z,87.54
2016-03-24T04:25:41.234Z,87.16
2016-03-24T04:26:41.236Z,87.16
2016-03-24T04:27:41.207Z,87.54
2016-03-24T04:28:41.210Z,87.26
2016-03-24T04:29:41.197Z,87.07
2016-03-24T04:30:41.200Z,87.45
2016-03-24T04:31:41.187Z,87.83
2016-03-24T04:32:41.174Z,87.73
2016-03-24T04:33:41.161Z,88.11
2016-03-24T04:34:41.163Z,88.21
2016-03-24T04:35:41.150Z,87.92
2016-03-24T04:36:41.138Z,88.02
2016-03-24T04:37:41.125Z,87.83
2016-03-24T04:38:41.111Z,87.92
2016-03-24T04:39:41.146Z,88.49
2016-03-24T04:40:41.116Z,88.49
2016-03-24T04:41:41.104Z,88.3
2016-03-24T04:42:41.091Z,88.21
2016-03-24T04:43:41.094Z,88.49
2016-03-24T04:44:41.065Z,88.49
2016-03-24T04:45:41.052Z,88.78
2016-03-24T04:46:41.040Z,88.68
2016-03-24T04:47:41.043Z,88.4
2016-03-24T04:48:41.013Z,88.3
2016-03-24T04:49:41.016Z,88.3
2016-03-24T04:50:41.003Z,88.3
2016-03-24T04:51:41.007Z,88.21
2016-03-24T04:52:40.993Z,88.3
2016-03-24T04:53:40.981Z,88.68
2016-03-24T04:54:40.967Z,88.49
2016-03-24T04:55:40.970Z,88.49
2016-03-24T04:56:40.956Z,88.4
2016-03-24T04:57:40.960Z,89.34
2016-03-24T04:58:40.931Z,88.87
2016-03-24T04:59:40.934Z,88.96
2016-03-24T05:00:40.920Z,89.06
2016-03-24T05:01:40.909Z,89.15
2016-03-24T05:02:40.895Z,88.92
2016-03-24T05:03:40.883Z,89.11
2016-03-24T05:04:40.885Z,88.82
2016-03-24T05:05:40.872Z,89.01
2016-03-24T05:06:40.858Z,89.29
2016-03-24T05:07:40.847Z,89.29
2016-03-24T05:08:40.849Z,89.11
2016-03-24T05:09:40.836Z,88.92
2016-03-24T05:10:40.822Z,88.92
2016-03-24T05:11:40.810Z,89.58
2016-03-24T05:12:43.422Z,89.67
2016-03-24T05:13:40.846Z,89.01
2016-03-24T05:14:41.068Z,89.2
2016-03-24T05:15:40.852Z,89.11
2016-03-24T05:16:40.777Z,89.39
2016-03-24T05:17:40.998Z,89.29
2016-03-24T05:18:41.235Z,89.29
2016-03-24T05:19:40.738Z,89.01
2016-03-24T05:20:40.865Z,89.15
2016-03-24T05:21:40.712Z,88.96
2016-03-24T05:22:42.434Z,88.96
2016-03-24T05:23:41.936Z,89.15
2016-03-24T05:24:40.814Z,88.96
2016-03-24T05:25:41.503Z,89.06
2016-03-24T05:26:41.459Z,89.53
2016-03-24T05:27:41.400Z,89.06
2016-03-24T05:28:40.668Z,88.58
2016-03-24T05:29:40.655Z,88.48
2016-03-24T05:30:40.642Z,88.2
2016-03-24T05:31:41.208Z,88.29
2016-03-24T05:32:40.632Z,88.58
2016-03-24T05:33:40.634Z,88.39
2016-03-24T05:34:40.606Z,88.48
2016-03-24T05:35:40.608Z,88.48
2016-03-24T05:36:40.612Z,88.39
2016-03-24T05:37:40.864Z,88.39
2016-03-24T05:38:40.586Z,88.68
2016-03-24T05:39:40.588Z,88.58
2016-03-24T05:40:40.966Z,88.58
2016-03-24T05:41:40.562Z,88.58
2016-03-24T05:42:40.566Z,88.96
2016-03-24T05:43:41.099Z,88.96
2016-03-24T05:44:40.539Z,88.68
2016-03-24T05:45:40.542Z,88.68
2016-03-24T05:46:40.514Z,88.77
2016-03-24T05:47:40.516Z,88.87
2016-03-24T05:48:40.707Z,88.77
2016-03-24T05:49:40.490Z,88.68
2016-03-24T05:50:40.493Z,88.48
2016-03-24T05:51:40.512Z,88.29
2016-03-24T05:52:40.468Z,88.24
2016-03-24T05:53:40.454Z,88.48
2016-03-24T05:54:40.457Z,88.48
2016-03-24T05:55:40.459Z,88.62
2016-03-24T05:56:40.446Z,88.34
2016-03-24T05:57:40.434Z,88.62
2016-03-24T05:58:40.421Z,88.72
2016-03-24T05:59:40.454Z,88.72
2016-03-24T06:00:40.457Z,88.81
2016-03-24T06:01:40.414Z,88.43
2016-03-24T06:02:40.384Z,88.62
2016-03-24T06:03:40.387Z,88.06
2016-03-24T06:04:40.374Z,88.06
2016-03-24T06:05:40.377Z,88.24
2016-03-24T06:06:40.380Z,88.24
2016-03-24T06:07:40.367Z,88.34
2016-03-24T06:08:40.354Z,88.24
2016-03-24T06:09:40.356Z,88.06
2016-03-24T06:10:40.343Z,88.06
2016-03-24T06:11:40.315Z,88.15
2016-03-24T06:12:40.318Z,87.96
2016-03-24T06:13:40.321Z,88.06
2016-03-24T06:14:40.307Z,88.15
2016-03-24T06:15:40.310Z,88.15
2016-03-24T06:16:40.282Z,87.96
2016-03-24T06:17:40.285Z,88.15
2016-03-24T06:18:40.271Z,88.24
2016-03-24T06:19:40.274Z,87.62
2016-03-24T06:20:40.245Z,88.01
2016-03-24T06:21:40.263Z,87.72
2016-03-24T06:22:40.235Z,87.82
2016-03-24T06:23:40.238Z,87.62
2016-03-24T06:24:40.225Z,87.24
2016-03-24T06:25:40.228Z,87.15
2016-03-24T06:26:40.214Z,87.53
2016-03-24T06:27:40.218Z,87.29
2016-03-24T06:28:40.204Z,87.48
2016-03-24T06:29:40.207Z,87.57
2016-03-24T06:30:40.194Z,87.57
2016-03-24T06:31:40.182Z,87.48
2016-03-24T06:32:41.106Z,87.48
2016-03-24T06:33:41.359Z,87.14
2016-03-24T06:34:40.173Z,87.14
2016-03-24T06:35:40.161Z,87.05
2016-03-24T06:36:40.179Z,87.24
2016-03-24T06:37:40.698Z,86.86
2016-03-24T06:38:40.138Z,86.43
2016-03-24T06:39:40.156Z,86.71
2016-03-24T06:40:40.127Z,86.05
2016-03-24T06:41:40.880Z,86.43
2016-03-24T06:42:40.789Z,85.95
2016-03-24T06:43:40.136Z,85.86
2016-03-24T06:44:40.950Z,85.66
2016-03-24T06:45:40.110Z,85.19
2016-03-24T06:46:40.410Z,84.62
2016-03-24T06:47:40.100Z,84.66
2016-03-24T06:48:40.102Z,84.85
2016-03-24T06:49:40.088Z,85.04
2016-03-24T06:50:40.123Z,84.19
2016-03-24T06:51:54.938Z,84.66
2016-03-24T06:52:40.129Z,84.47
2016-03-24T06:53:40.099Z,84
2016-03-24T06:54:40.587Z,83.9
2016-03-24T06:55:40.073Z,83.9
2016-03-24T06:56:40.093Z,83.9
2016-03-24T06:57:40.079Z,83.81
2016-03-24T06:58:40.067Z,84.09
2016-03-24T06:59:41.209Z,83.52
2016-03-24T07:00:40.057Z,83.71
2016-03-24T07:01:40.043Z,83.23
2016-03-24T07:02:54.374Z,83.42
2016-03-24T07:03:40.033Z,83.42
2016-03-24T07:04:40.036Z,83.14
2016-03-24T07:05:40.023Z,83.23
2016-03-24T07:06:40.026Z,82.95
2016-03-24T07:07:40.028Z,82.76
2016-03-24T07:08:40.015Z,82.57
2016-03-24T07:09:39.987Z,82.76
2016-03-24T07:10:39.990Z,82.57
2016-03-24T07:11:39.977Z,82.38
2016-03-24T07:12:39.979Z,82.48
2016-03-24T07:13:39.997Z,82.57
2016-03-24T07:14:40.016Z,82.76
2016-03-24T07:15:40.003Z,82.67
2016-03-24T07:16:39.974Z,82.28
2016-03-24T07:17:39.961Z,81.52
2016-03-24T07:18:39.948Z,80.95
2016-03-24T07:19:39.952Z,80.76
2016-03-24T07:20:39.969Z,80.38
2016-03-24T07:21:39.956Z,80.15
2016-03-24T07:22:39.944Z,80.44
2016-03-24T07:23:39.946Z,80.47
2016-03-24T07:24:39.949Z,80.38
2016-03-24T07:25:39.936Z,80.57
2016-03-24T07:26:39.923Z,80.95
2016-03-24T07:27:39.941Z,81.33
2016-03-24T07:28:39.913Z,80.95
2016-03-24T07:29:39.916Z,80.71
2016-03-24T07:30:39.903Z,80.13
2016-03-24T07:31:39.920Z,80.23
2016-03-24T07:32:39.893Z,80.42
2016-03-24T07:33:39.895Z,80.42
2016-03-24T07:34:39.757Z,80.42
2016-03-24T07:35:39.885Z,80.33
2016-03-24T07:36:39.872Z,80.23
2016-03-24T07:37:39.875Z,79.66
2016-03-24T07:38:39.877Z,79.85
2016-03-24T07:39:39.864Z,79.66
2016-03-24T07:40:39.867Z,79.75
2016-03-24T07:41:39.869Z,79.47
2016-03-24T07:42:39.856Z,80.04
2016-03-24T07:43:39.859Z,79.47
2016-03-24T07:44:39.847Z,79.85
2016-03-24T07:45:39.849Z,79.47
2016-03-24T07:46:39.836Z,79.38
2016-03-24T07:47:39.854Z,79.28
2016-03-24T07:48:39.827Z,79.38
2016-03-24T07:49:39.829Z,79.19
2016-03-24T07:50:39.831Z,79.38
2016-03-24T07:51:39.819Z,79.38
2016-03-24T07:52:39.821Z,79.47
2016-03-24T07:53:39.824Z,78.61
2016-03-24T07:54:39.811Z,78.9
2016-03-24T07:55:39.798Z,78.42
2016-03-24T07:56:39.801Z,78.42
2016-03-24T07:57:39.804Z,78.61
2016-03-24T07:58:39.635Z,78.42
2016-03-24T07:59:39.793Z,78.52
2016-03-24T08:00:39.779Z,78.42
2016-03-24T08:01:39.783Z,78.8
2016-03-24T08:02:39.754Z,78.61
2016-03-24T08:03:39.773Z,78.52
2016-03-24T08:04:39.776Z,78.42
2016-03-24T08:05:39.762Z,78.42
2016-03-24T08:06:39.747Z,78.9
2016-03-24T08:07:39.747Z,78.42
2016-03-24T08:08:39.749Z,77.95
2016-03-24T08:09:39.736Z,77.95
2016-03-24T08:10:40.786Z,77.98
2016-03-24T08:12:39.728Z,78.27
2016-03-24T08:13:40.215Z,78.17
2016-03-24T08:14:39.718Z,77.98
2016-03-24T08:15:39.705Z,77.98
2016-03-24T08:16:39.708Z,78.37
2016-03-24T08:17:39.695Z,78.27
2016-03-24T08:18:53.885Z,77.89
2016-03-24T08:19:39.685Z,78.17
2016-03-24T08:20:39.688Z,77.98
2016-03-24T08:21:54.174Z,77.89
2016-03-24T08:22:39.692Z,77.83
2016-03-24T08:23:39.680Z,77.83
2016-03-24T08:24:39.682Z,77.07
2016-03-24T08:25:39.826Z,77.17
2016-03-24T08:26:39.657Z,76.5
2016-03-24T08:27:39.675Z,76.69
2016-03-24T08:28:39.662Z,76.21
2016-03-24T08:29:39.665Z,76.5
2016-03-24T08:30:39.651Z,75.64
2016-03-24T08:31:39.670Z,75.74
2016-03-24T08:32:39.642Z,75.93
2016-03-24T08:33:39.659Z,76.12
2016-03-24T08:34:39.667Z,75.84
2016-03-24T08:35:39.623Z,76.12
2016-03-24T08:36:39.593Z,75.79
2016-03-24T08:37:39.597Z,75.89
2016-03-24T08:38:39.552Z,75.51
2016-03-24T08:39:39.546Z,75.6
2016-03-24T08:40:39.544Z,75.6
2016-03-24T08:41:39.524Z,75.74
2016-03-24T08:42:39.538Z,75.84
2016-03-24T08:43:39.518Z,75.26
2016-03-24T08:44:39.502Z,75.45
2016-03-24T08:45:39.518Z,75.26
2016-03-24T08:46:39.519Z,74.98
2016-03-24T08:47:39.490Z,75.07
2016-03-24T08:48:39.490Z,74.79
2016-03-24T08:49:39.773Z,74.79
2016-03-24T08:50:41.555Z,74.92
2016-03-24T08:51:40.043Z,74.44
2016-03-24T08:52:41.028Z,74.69
2016-03-24T08:53:39.484Z,75.01
2016-03-24T08:54:39.470Z,74.4
2016-03-24T08:55:39.504Z,74.92
2016-03-24T08:56:40.022Z,74.63
2016-03-24T08:57:39.461Z,74.54
2016-03-24T08:58:39.479Z,74.44
2016-03-24T08:59:39.450Z,74.35
2016-03-24T09:00:40.688Z,74.48
2016-03-24T09:01:40.581Z,74.38
2016-03-24T09:02:39.615Z,73.91
2016-03-24T09:03:39.446Z,73.72
2016-03-24T09:04:39.605Z,73.62
2016-03-24T09:05:39.452Z,73.52
2016-03-24T09:06:39.438Z,73.91
2016-03-24T09:07:39.441Z,73.43
2016-03-24T09:08:39.427Z,73.43
2016-03-24T09:09:39.415Z,73.72
2016-03-24T09:10:39.433Z,73.72
2016-03-24T09:11:39.421Z,72.96
2016-03-24T09:12:39.423Z,72.86
2016-03-24T09:13:39.426Z,72.28
2016-03-24T09:14:39.429Z,72.67
2016-03-24T09:15:39.415Z,72.67
2016-03-24T09:16:39.418Z,72.89
2016-03-24T09:17:39.421Z,71.37
2016-03-24T09:18:39.423Z,71.94
2016-03-24T09:19:39.426Z,71.18
2016-03-24T09:20:39.413Z,71.37
2016-03-24T09:21:39.416Z,71.27
2016-03-24T09:22:39.418Z,71.27
2016-03-24T09:23:39.421Z,71.27
2016-03-24T09:24:39.409Z,71.08
2016-03-24T09:25:39.411Z,71.37
2016-03-24T09:26:39.398Z,71.46
2016-03-24T09:27:39.417Z,71.66
2016-03-24T09:28:39.404Z,71.56
2016-03-24T09:29:40.156Z,71.46
2016-03-24T09:32:39.399Z,70.16
2016-03-24T09:33:39.745Z,70.26
2016-03-24T09:34:39.654Z,70.26
2016-03-24T09:35:39.391Z,70.36
2016-03-24T09:36:39.394Z,70.45
2016-03-24T09:37:39.741Z,70.26
2016-03-24T09:38:40.290Z,70.16
2016-03-24T09:39:39.589Z,70.36
2016-03-24T09:40:39.374Z,70.29
2016-03-24T09:41:39.391Z,70.45
2016-03-24T09:42:39.394Z,70.29
2016-03-24T09:43:39.382Z,70.29
2016-03-24T09:44:39.385Z,69.15
2016-03-24T09:45:39.402Z,67.62
2016-03-24T09:46:39.390Z,67.05
2016-03-24T09:47:39.393Z,66.76
2016-03-24T09:48:39.410Z,67.62
2016-03-24T09:49:39.398Z,67.71
2016-03-24T09:50:39.384Z,67.62
2016-03-24T09:51:39.371Z,67.94
2016-03-24T09:52:39.390Z,67.84
2016-03-24T09:53:39.392Z,68.32
2016-03-24T09:54:39.396Z,67.75
2016-03-24T09:55:39.382Z,68.35
2016-03-24T09:56:39.384Z,67.69
2016-03-24T09:57:39.388Z,67.69
2016-03-24T09:58:39.390Z,67.4
2016-03-24T09:59:39.392Z,67.69
2016-03-24T10:00:39.381Z,67.3
2016-03-24T10:01:39.383Z,67.21
2016-03-24T10:02:39.386Z,67.34
2016-03-24T10:03:39.389Z,67.53
2016-03-24T10:04:39.391Z,67.14
2016-03-24T10:05:39.394Z,67.05
2016-03-24T10:06:39.397Z,66.76
2016-03-24T10:07:39.383Z,67.05
2016-03-24T10:08:39.401Z,67.24
2016-03-24T10:09:40.530Z,66.28
2016-03-24T10:10:39.391Z,66.67
2016-03-24T10:11:39.925Z,66.67
2016-03-24T10:12:39.913Z,66.57
2016-03-24T10:13:39.541Z,66.76
2016-03-24T10:14:39.402Z,65.9
2016-03-24T10:15:39.405Z,65.9
2016-03-24T10:16:39.392Z,65.9
2016-03-24T10:17:39.395Z,65.61
2016-03-24T10:18:39.398Z,65.52
2016-03-24T10:19:39.416Z,65.42
2016-03-24T10:20:39.403Z,65.23
2016-03-24T10:21:39.406Z,65.23
2016-03-24T10:22:39.705Z,64.66
2016-03-24T10:23:40.083Z,64.75
2016-03-24T10:24:39.398Z,64.34
2016-03-24T10:25:39.400Z,64.09
2016-03-24T10:26:39.403Z,65.14
2016-03-24T10:27:39.406Z,65.04
2016-03-24T10:28:39.409Z,65.14
2016-03-24T10:29:39.395Z,64.09
2016-03-24T10:30:39.415Z,64.56
2016-03-24T10:31:39.417Z,63.8
2016-03-24T10:32:39.404Z,63.6
2016-03-24T10:33:39.422Z,63.42
2016-03-24T10:34:39.409Z,64.18
2016-03-24T10:35:39.272Z,64.56
2016-03-24T10:36:39.414Z,64.09
2016-03-24T10:37:39.432Z,63.7
2016-03-24T10:38:39.420Z,64.12
2016-03-24T10:39:39.422Z,63.54
2016-03-24T10:40:39.410Z,62.3
2016-03-24T10:41:39.427Z,61.54
2016-03-24T10:42:39.416Z,60
2016-03-24T10:43:38.699Z,59.43
2016-03-24T10:44:39.435Z,60.19
2016-03-24T10:45:39.438Z,59.62
2016-03-24T10:46:39.426Z,59.81
2016-03-24T10:47:39.584Z,60
2016-03-24T10:49:54.168Z,59.72
2016-03-24T10:50:39.890Z,59.94
2016-03-24T10:51:39.454Z,60.03
2016-03-24T10:52:39.442Z,59.75
2016-03-24T10:53:39.445Z,58.88
2016-03-24T10:54:39.448Z,58.02
2016-03-24T10:55:39.450Z,57.83
2016-03-24T10:56:39.437Z,57.83
2016-03-24T10:57:39.456Z,58.22
2016-03-24T10:59:39.492Z,58.31
2016-03-24T11:00:39.728Z,58.59
2016-03-24T11:01:39.467Z,58.22
2016-03-24T11:02:39.470Z,58.69
2016-03-24T11:03:39.472Z,57.92
2016-03-24T11:04:39.490Z,58.05
2016-03-24T11:05:39.305Z,57.76
2016-03-24T11:06:39.464Z,57.09
2016-03-24T11:07:39.467Z,55.85
2016-03-24T11:08:39.469Z,56.2
2016-03-24T11:09:39.487Z,56.2
2016-03-24T11:10:39.490Z,56.49
2016-03-24T11:11:39.477Z,56.77
2016-03-24T11:12:39.480Z,56.2
2016-03-24T11:13:39.483Z,56.39
2016-03-24T11:14:39.501Z,56.39
2016-03-24T11:15:39.488Z,56.2
2016-03-24T11:16:39.490Z,54
2016-03-24T11:17:39.494Z,52.95
2016-03-24T11:18:39.496Z,52.15
2016-03-24T11:19:39.499Z,51.97
2016-03-24T11:20:39.501Z,50.5
2016-03-24T11:21:39.504Z,50.89
2016-03-24T11:22:39.491Z,51.36
2016-03-24T11:23:39.509Z,51.84
2016-03-24T11:24:39.513Z,52.61
2016-03-24T11:25:39.515Z,54.04
2016-03-24T11:26:39.517Z,54.23
2016-03-24T11:27:39.505Z,55
2016-03-24T11:28:39.539Z,55.47
2016-03-24T11:29:41.056Z,55.57
2016-03-24T11:30:39.513Z,55.67
2016-03-24T11:31:39.500Z,56.15
2016-03-24T11:32:40.378Z,56.72
2016-03-24T11:33:39.506Z,56.43
2016-03-24T11:34:39.602Z,56.62
2016-03-24T11:35:39.511Z,56.62
2016-03-24T11:36:39.513Z,56.15
2016-03-24T11:37:39.516Z,55.86
2016-03-24T11:39:41.053Z,55.47
2016-03-24T11:40:40.133Z,55.57
2016-03-24T11:41:39.527Z,55.86
2016-03-24T11:42:39.530Z,55.02
2016-03-24T11:43:39.516Z,52.13
2016-03-24T11:44:39.957Z,50.89
2016-03-24T11:45:39.538Z,50.02
2016-03-24T11:46:39.524Z,50.95
2016-03-24T11:47:39.544Z,51.91
2016-03-24T11:48:39.530Z,52.32
2016-03-24T11:49:39.548Z,52.13
2016-03-24T11:50:39.535Z,52.8
2016-03-24T11:51:39.553Z,52.13
2016-03-24T11:52:39.525Z,50.81
2016-03-24T11:53:39.543Z,49.09
2016-03-24T11:54:39.531Z,48.97
2016-03-24T11:55:39.534Z,49.45
2016-03-24T11:56:39.536Z,49.64
2016-03-24T11:57:39.539Z,50.12
2016-03-24T11:58:39.542Z,50.12
2016-03-24T11:59:39.590Z,50.79
2016-03-24T12:00:39.547Z,50.6
2016-03-24T12:01:39.550Z,50.76
2016-03-24T12:02:39.553Z,51.05
2016-03-24T12:03:39.539Z,50.19
2016-03-24T12:04:39.542Z,50.29
2016-03-24T12:05:39.544Z,50.86
2016-03-24T12:06:39.656Z,51.53
2016-03-24T12:09:53.743Z,51.56
2016-03-24T12:10:39.558Z,51.46
2016-03-24T12:11:39.763Z,51.65
2016-03-24T12:12:39.704Z,51.36
2016-03-24T12:13:39.566Z,50.43
2016-03-24T12:14:39.553Z,50.34
2016-03-24T12:15:39.758Z,49.86
2016-03-24T12:16:39.559Z,50.72
2016-03-24T12:17:39.561Z,50.43
2016-03-24T12:18:40.157Z,49.66
2016-03-24T12:19:40.176Z,49.29
2016-03-24T12:20:39.865Z,48.97
2016-03-24T12:21:39.571Z,49.07
2016-03-24T12:22:39.574Z,48.88
2016-03-24T12:23:39.561Z,48.39
2016-03-24T12:24:39.580Z,47.44
2016-03-24T12:25:39.582Z,47.82
2016-03-24T12:26:39.570Z,47.34
2016-03-24T12:27:39.572Z,47.53
2016-03-24T12:28:39.576Z,46.56
2016-03-24T12:29:39.578Z,45.98
2016-03-24T12:30:39.581Z,45.6
2016-03-24T12:31:39.598Z,45.7
2016-03-24T12:32:39.586Z,45.79
2016-03-24T12:33:39.573Z,46.06
2016-03-24T12:34:39.591Z,45.87
2016-03-24T12:35:39.578Z,45.84
2016-03-24T12:36:39.581Z,45.75
2016-03-24T12:37:39.584Z,44.96
2016-03-24T12:38:39.570Z,44.87
2016-03-24T12:39:39.573Z,45.7
2016-03-24T12:40:39.576Z,46.44
2016-03-24T12:41:39.594Z,46.54
2016-03-24T12:42:39.581Z,46.92
2016-03-24T12:43:39.568Z,47.49
2016-03-24T12:44:39.603Z,47.49
2016-03-24T12:45:39.574Z,47.39
2016-03-24T12:46:39.576Z,48.13
2016-03-24T12:47:40.360Z,48.71
2016-03-24T12:48:40.035Z,49.02
2016-03-24T12:49:40.632Z,49.02
2016-03-24T12:50:40.618Z,48.92
2016-03-24T12:51:39.574Z,48.92
2016-03-24T12:52:39.577Z,48.94
2016-03-24T12:53:39.580Z,48.94
2016-03-24T12:54:39.567Z,48.08
2016-03-24T12:55:39.570Z,47.89
2016-03-24T12:56:39.572Z,47.99
2016-03-24T12:57:40.294Z,47.71
2016-03-24T12:58:39.859Z,47.32
2016-03-24T12:59:39.548Z,47.8
2016-03-24T13:00:39.567Z,48.28
2016-03-24T13:01:39.711Z,48.37
2016-03-24T13:02:39.729Z,48.07
2016-03-24T13:03:39.544Z,47.97
2016-03-24T13:04:39.563Z,48.07
2016-03-24T13:05:39.565Z,46.92
2016-03-24T13:06:39.553Z,47.02